This is the latest recevied weather packets stored in our database for station/object OE9FWV. If no packets are shown the sender has not sent any weather packets the latest 1 day(s).
| Time | Temp. | Humidity | Pressure | Rain* | Wind** | Luminosity | Snow |
|---|---|---|---|---|---|---|---|
| 1778094942 | 11.11° C | 81% | 1009.8 hPa | 0 mm | - | - | - |
| 1778090718 | 12.22° C | 80% | 1008.8 hPa | 0 mm | - | - | - |
| 1778084683 | 12.78° C | 78% | 1007.7 hPa | 0 mm | - | - | - |
| 1778084076 | 12.22° C | 78% | 1007.6 hPa | 0 mm | - | - | - |
| 1778082868 | 11.67° C | 81% | 1007.8 hPa | 0 mm | - | - | - |
| 1778081047 | 11.11° C | 80% | 1008.3 hPa | 0 mm | - | - | - |
| 1778078023 | 16.11° C | 61% | 1006.4 hPa | 0 mm | - | - | - |
| 1778077418 | 17.22° C | 57% | 1005.9 hPa | 0 mm | - | - | - |
| 1778076818 | 17.78° C | 55% | 1005.6 hPa | 0 mm | - | - | - |
| 1778074394 | 19.44° C | 61% | 1005.1 hPa | 0 mm | - | - | - |
| 1778071981 | 20° C | 61% | 1004.9 hPa | 0 mm | - | - | - |
| 1778070769 | 17.78° C | 66% | 1005 hPa | 0 mm | - | - | - |
| 1778070164 | 16.67° C | 68% | 1005.1 hPa | 0 mm | - | - | - |
| 1778069560 | 16.11° C | 72% | 1004.8 hPa | 0 mm | - | - | - |
| 1778061711 | 17.78° C | 65% | 1005.4 hPa | 0 mm | - | - | - |
| 1778061111 | 17.78° C | 65% | 1005.6 hPa | 0 mm | - | - | - |
| 1778060511 | 17.78° C | 67% | 1005.6 hPa | 0 mm | - | - | - |
| 1778058099 | 16.11° C | 71% | 1005.6 hPa | 0 mm | - | - | - |
| 1778056889 | 15° C | 78% | 1005.7 hPa | 0 mm | - | - | - |
| 1778055070 | 13.89° C | 77% | 1005.8 hPa | 0 mm | - | - | - |
| 1778052657 | 12.78° C | 81% | 1005.8 hPa | 0 mm | - | - | - |
| 1778051456 | 12.22° C | 82% | 1005.6 hPa | 0 mm | - | - | - |
| 1778047842 | 11.67° C | 83% | 1006.2 hPa | 0 mm | - | - | - |
| 1778047234 | 11.67° C | 84% | 1006.1 hPa | 0 mm | - | - | - |
| 1778046634 | 11.11° C | 84% | 1006.3 hPa | 0 mm | - | - | - |
* Rain latest hour (hover to see other rain measurements)
** Current wind speed in m/s (hover to see current wind gust speed)